createdAt,value
2022-09-21T00:00:31.161Z,12.10
2022-09-21T00:02:59.410Z,11.90
2022-09-21T00:05:27.531Z,11.80
2022-09-21T00:07:56.655Z,11.90
2022-09-21T00:10:24.330Z,11.90
2022-09-21T00:12:51.991Z,12.10
2022-09-21T00:15:20.426Z,11.90
2022-09-21T00:17:48.501Z,11.70
2022-09-21T00:20:16.342Z,11.80
2022-09-21T00:22:44.119Z,11.90
2022-09-21T00:25:13.136Z,12.10
2022-09-21T00:27:40.923Z,12.10
2022-09-21T00:30:09.188Z,11.90
2022-09-21T00:32:39.244Z,12.00
2022-09-21T00:35:09.548Z,12.10
2022-09-21T00:37:37.241Z,12.00
2022-09-21T00:40:05.667Z,12.10
2022-09-21T00:42:36.289Z,12.10
2022-09-21T00:45:05.174Z,12.10
2022-09-21T00:47:36.566Z,11.80
2022-09-21T00:50:08.425Z,11.80
2022-09-21T00:52:40.804Z,11.80
2022-09-21T00:55:15.494Z,11.70
2022-09-21T00:57:47.435Z,11.80
2022-09-21T01:00:15.555Z,11.80
2022-09-21T01:02:44.261Z,11.80
2022-09-21T01:05:13.766Z,11.70
2022-09-21T01:07:45.614Z,11.70
2022-09-21T01:10:16.772Z,11.60
2022-09-21T01:12:56.241Z,11.50
2022-09-21T01:15:36.622Z,11.50
2022-09-21T01:18:13.255Z,11.70
2022-09-21T01:21:03.202Z,11.80
2022-09-21T01:23:57.648Z,11.80
2022-09-21T01:26:42.778Z,11.70
2022-09-21T01:29:20.932Z,11.70
2022-09-21T01:31:53.887Z,11.80
2022-09-21T01:34:28.767Z,11.70
2022-09-21T01:36:59.961Z,11.70
2022-09-21T01:39:30.081Z,11.60
2022-09-21T01:41:59.724Z,11.50
2022-09-21T01:44:33.409Z,11.40
2022-09-21T01:47:03.982Z,11.40
2022-09-21T01:49:37.229Z,11.30
2022-09-21T01:52:12.630Z,11.20
2022-09-21T01:54:44.387Z,11.20
2022-09-21T01:57:17.595Z,11.30
2022-09-21T01:59:52.134Z,11.40
2022-09-21T02:02:23.986Z,11.40
2022-09-21T02:04:51.904Z,11.50
2022-09-21T02:07:20.166Z,11.60
2022-09-21T02:09:49.039Z,11.50
2022-09-21T02:12:19.154Z,11.60
2022-09-21T02:14:49.475Z,11.60
2022-09-21T02:17:29.068Z,11.50
2022-09-21T02:20:02.887Z,11.40
2022-09-21T02:22:37.823Z,11.30
2022-09-21T02:25:09.508Z,10.90
2022-09-21T02:27:41.847Z,10.80
2022-09-21T02:30:15.609Z,10.90
2022-09-21T02:32:50.347Z,10.90
2022-09-21T02:35:30.339Z,10.90
2022-09-21T02:38:06.643Z,10.80
2022-09-21T02:40:39.210Z,10.80
2022-09-21T02:43:12.087Z,10.90
2022-09-21T02:45:45.174Z,10.90
2022-09-21T02:48:16.736Z,11.00
2022-09-21T02:50:48.523Z,11.00
2022-09-21T02:53:20.724Z,11.20
2022-09-21T02:55:55.641Z,11.30
2022-09-21T02:58:27.269Z,11.40
2022-09-21T03:00:59.155Z,11.30
2022-09-21T03:03:26.993Z,11.20
2022-09-21T03:05:56.203Z,11.10
2022-09-21T03:08:24.299Z,11.10
2022-09-21T03:10:52.507Z,11.00
2022-09-21T03:13:20.393Z,10.90
2022-09-21T03:15:48.978Z,10.90
2022-09-21T03:18:18.042Z,10.80
2022-09-21T03:20:47.040Z,10.70
2022-09-21T03:23:14.994Z,10.80
2022-09-21T03:25:45.243Z,10.80
2022-09-21T03:28:13.497Z,10.90
2022-09-21T03:30:41.639Z,10.90
2022-09-21T03:33:10.070Z,10.90
2022-09-21T03:35:39.358Z,11.00
2022-09-21T03:38:07.726Z,10.90
2022-09-21T03:40:35.867Z,10.80
2022-09-21T03:43:03.659Z,10.60
2022-09-21T03:45:31.360Z,10.60
2022-09-21T03:48:00.681Z,10.40
2022-09-21T03:50:29.853Z,10.70
2022-09-21T03:52:58.941Z,10.80
2022-09-21T03:55:27.327Z,10.90
2022-09-21T03:57:55.000Z,10.90
2022-09-21T04:00:23.257Z,10.90
2022-09-21T04:02:50.955Z,11.00
2022-09-21T04:05:18.790Z,10.90
2022-09-21T04:07:46.710Z,10.80
2022-09-21T04:10:17.829Z,10.90
2022-09-21T04:12:46.653Z,10.90
2022-09-21T04:15:16.400Z,11.00
2022-09-21T04:17:44.102Z,10.80
2022-09-21T04:20:11.902Z,10.80
2022-09-21T04:22:43.346Z,10.70
2022-09-21T04:25:12.655Z,10.60
2022-09-21T04:27:42.565Z,10.40
2022-09-21T04:30:13.039Z,10.40
2022-09-21T04:32:40.802Z,10.40
2022-09-21T04:35:09.395Z,10.40
2022-09-21T04:37:37.133Z,10.50
2022-09-21T04:40:05.915Z,10.50
2022-09-21T04:42:33.698Z,10.60
2022-09-21T04:45:02.718Z,10.70
2022-09-21T04:47:31.355Z,10.80
2022-09-21T04:49:59.071Z,10.80
2022-09-21T04:52:26.846Z,10.80
2022-09-21T04:54:54.597Z,10.80
2022-09-21T04:57:22.280Z,10.70
2022-09-21T04:59:50.016Z,10.70
2022-09-21T05:02:19.014Z,10.80
2022-09-21T05:04:50.822Z,10.80
2022-09-21T05:07:18.885Z,10.80
2022-09-21T05:10:03.918Z,10.80
2022-09-21T05:12:31.950Z,10.70
2022-09-21T05:15:00.063Z,10.70
2022-09-21T05:17:29.734Z,10.70
2022-09-21T05:19:57.457Z,10.80
2022-09-21T05:22:25.224Z,10.80
2022-09-21T05:24:52.939Z,10.80
2022-09-21T05:27:20.657Z,10.60
2022-09-21T05:29:48.988Z,10.70
2022-09-21T05:32:24.881Z,10.60
2022-09-21T05:35:04.298Z,10.50
2022-09-21T05:37:53.131Z,10.50
2022-09-21T05:40:21.681Z,10.50
2022-09-21T05:42:50.054Z,10.40
2022-09-21T05:45:20.999Z,10.70
2022-09-21T05:48:00.008Z,10.50
2022-09-21T05:50:45.720Z,10.40
2022-09-21T05:53:25.798Z,10.20
2022-09-21T05:55:57.351Z,10.10
2022-09-21T05:58:34.111Z,10.10
2022-09-21T06:01:26.132Z,10.00
2022-09-21T06:03:54.964Z,10.10
2022-09-21T06:06:24.034Z,10.10
2022-09-21T06:08:51.999Z,10.00
2022-09-21T06:11:19.985Z,10.30
2022-09-21T06:13:47.790Z,10.30
2022-09-21T06:16:15.524Z,10.50
2022-09-21T06:18:43.421Z,10.50
2022-09-21T06:21:11.368Z,10.40
2022-09-21T06:23:40.395Z,10.40
2022-09-21T06:26:08.101Z,10.30
2022-09-21T06:28:35.802Z,10.50
2022-09-21T06:31:03.591Z,10.50
2022-09-21T06:33:31.353Z,10.60
2022-09-21T06:36:00.385Z,10.80
2022-09-21T06:38:29.067Z,10.80
2022-09-21T06:41:02.230Z,10.70
2022-09-21T06:43:30.108Z,10.90
2022-09-21T06:46:00.044Z,10.90
2022-09-21T06:48:28.565Z,10.80
2022-09-21T06:50:59.415Z,10.90
2022-09-21T06:53:27.771Z,11.00
2022-09-21T06:55:55.505Z,11.10
2022-09-21T06:58:24.625Z,11.00
2022-09-21T07:00:52.376Z,11.00
2022-09-21T07:03:20.118Z,11.30
2022-09-21T07:05:47.871Z,11.40
2022-09-21T07:11:03.661Z,11.70
2022-09-21T07:13:33.113Z,11.60
2022-09-21T07:16:05.165Z,11.50
2022-09-21T07:18:42.676Z,11.80
2022-09-21T07:21:12.332Z,11.90
2022-09-21T07:23:40.156Z,12.00
2022-09-21T07:26:09.477Z,12.00
2022-09-21T07:28:38.902Z,12.10
2022-09-21T07:31:09.199Z,12.10
2022-09-21T07:33:38.005Z,12.10
2022-09-21T07:36:10.316Z,12.30
2022-09-21T07:38:39.402Z,12.50
2022-09-21T07:41:07.594Z,12.60
2022-09-21T07:43:35.371Z,12.60
2022-09-21T07:46:04.487Z,12.70
2022-09-21T07:48:32.214Z,12.70
2022-09-21T07:51:04.891Z,12.70
2022-09-21T07:53:32.928Z,12.80
2022-09-21T07:56:04.866Z,13.10
2022-09-21T07:58:50.495Z,13.30
2022-09-21T08:01:19.702Z,13.20
2022-09-21T08:03:50.212Z,13.10
2022-09-21T08:06:18.150Z,13.60
2022-09-21T08:08:48.204Z,14.00
2022-09-21T08:11:17.241Z,14.20
2022-09-21T08:13:45.233Z,14.20
2022-09-21T08:16:13.111Z,14.30
2022-09-21T08:18:43.616Z,14.40
2022-09-21T08:21:12.876Z,14.50
2022-09-21T08:23:42.990Z,14.50
2022-09-21T08:26:16.413Z,14.60
2022-09-21T08:28:48.963Z,14.30
2022-09-21T08:31:19.307Z,14.20
2022-09-21T08:33:48.934Z,14.60
2022-09-21T08:36:17.095Z,14.90
2022-09-21T08:38:45.066Z,15.00
2022-09-21T08:41:17.743Z,14.50
2022-09-21T08:43:48.070Z,14.50
2022-09-21T08:46:19.882Z,14.70
2022-09-21T08:48:51.818Z,15.00
2022-09-21T08:51:28.642Z,15.20
2022-09-21T08:54:00.572Z,15.20
2022-09-21T08:56:47.177Z,15.30
2022-09-21T08:59:16.581Z,15.40
2022-09-21T09:01:58.334Z,15.30
2022-09-21T09:04:51.040Z,15.50
2022-09-21T09:07:30.534Z,15.60
2022-09-21T09:10:16.731Z,15.70
2022-09-21T09:12:55.231Z,15.80
2022-09-21T09:15:53.609Z,15.80
2022-09-21T09:18:30.127Z,15.90
2022-09-21T09:21:03.377Z,15.90
2022-09-21T09:23:35.786Z,15.80
2022-09-21T09:26:08.876Z,16.00
2022-09-21T09:28:42.908Z,16.10
2022-09-21T09:31:17.047Z,16.30
2022-09-21T09:33:53.085Z,16.40
2022-09-21T09:36:46.571Z,16.40
2022-09-21T09:39:13.509Z,16.70
2022-09-21T09:41:53.877Z,17.00
2022-09-21T09:44:39.838Z,16.90
2022-09-21T09:47:17.697Z,17.30
2022-09-21T09:50:00.690Z,17.70
2022-09-21T09:52:30.016Z,17.60
2022-09-21T09:54:58.789Z,17.50
2022-09-21T09:57:30.680Z,17.60
2022-09-21T10:00:03.752Z,17.50
2022-09-21T10:02:31.476Z,17.40
2022-09-21T10:05:06.392Z,17.70
2022-09-21T10:07:41.047Z,17.90
2022-09-21T10:10:34.734Z,17.90
2022-09-21T10:13:12.494Z,17.90
2022-09-21T10:15:44.727Z,17.90
2022-09-21T10:18:22.221Z,18.00
2022-09-21T10:20:56.785Z,18.10
2022-09-21T10:23:26.396Z,18.30
2022-09-21T10:26:03.620Z,18.10
2022-09-21T10:28:31.902Z,18.00
2022-09-21T10:31:19.323Z,17.70
2022-09-21T10:33:53.091Z,17.60
2022-09-21T10:36:29.860Z,17.80
2022-09-21T10:39:18.412Z,18.00
2022-09-21T10:41:50.387Z,18.10
2022-09-21T10:44:24.449Z,18.30
2022-09-21T10:46:53.104Z,18.40
2022-09-21T10:49:24.212Z,18.10
2022-09-21T10:51:55.057Z,18.00
2022-09-21T10:54:28.644Z,18.10
2022-09-21T10:57:02.190Z,18.20
2022-09-21T10:59:31.440Z,18.30
2022-09-21T11:02:00.828Z,18.60
2022-09-21T11:04:35.394Z,18.60
2022-09-21T11:07:11.509Z,18.90
2022-09-21T11:09:48.049Z,19.10
2022-09-21T11:12:34.150Z,18.90
2022-09-21T11:15:18.120Z,19.20
2022-09-21T11:17:50.423Z,19.60
2022-09-21T11:20:29.087Z,19.20
2022-09-21T11:23:05.112Z,19.20
2022-09-21T11:25:42.097Z,19.10
2022-09-21T11:28:16.593Z,18.80
2022-09-21T11:30:57.354Z,18.80
2022-09-21T11:33:41.466Z,18.70
2022-09-21T11:36:17.623Z,18.50
2022-09-21T11:38:55.449Z,18.40
2022-09-21T11:41:40.829Z,18.60
2022-09-21T11:44:23.970Z,19.00
2022-09-21T11:47:00.967Z,19.70
2022-09-21T11:50:07.676Z,19.30
2022-09-21T11:52:51.122Z,19.40
2022-09-21T11:55:39.024Z,19.50
2022-09-21T11:58:13.821Z,20.10
2022-09-21T12:00:52.356Z,20.40
2022-09-21T12:03:36.593Z,20.50
2022-09-21T12:06:26.369Z,20.60
2022-09-21T12:09:30.420Z,20.40
2022-09-21T12:12:08.109Z,20.50
2022-09-21T12:14:45.839Z,20.60
2022-09-21T12:17:23.273Z,20.40
2022-09-21T12:20:02.938Z,20.10
2022-09-21T12:22:36.400Z,19.80
2022-09-21T12:25:13.908Z,19.50
2022-09-21T12:27:44.877Z,19.70
2022-09-21T12:30:16.900Z,19.60
2022-09-21T12:32:53.242Z,19.80
2022-09-21T12:35:29.072Z,20.30
2022-09-21T12:38:03.087Z,20.60
2022-09-21T12:40:39.029Z,20.70
2022-09-21T12:43:17.483Z,20.80
2022-09-21T12:45:52.464Z,20.90
2022-09-21T12:48:29.933Z,20.70
2022-09-21T12:51:05.848Z,20.90
2022-09-21T12:53:38.711Z,20.90
2022-09-21T12:56:10.146Z,20.70
2022-09-21T12:58:50.653Z,20.90
2022-09-21T13:01:28.339Z,21.00
2022-09-21T13:04:13.701Z,21.30
2022-09-21T13:07:09.243Z,21.20
2022-09-21T13:09:41.201Z,21.30
2022-09-21T13:12:12.038Z,20.80
2022-09-21T13:14:48.062Z,20.10
2022-09-21T13:17:23.507Z,19.90
2022-09-21T13:20:00.638Z,19.90
2022-09-21T13:22:33.298Z,20.10
2022-09-21T13:25:04.843Z,20.10
2022-09-21T13:28:00.623Z,20.10
2022-09-21T13:30:34.713Z,20.10
2022-09-21T13:33:19.282Z,19.90
2022-09-21T13:35:54.849Z,19.80
2022-09-21T13:38:27.581Z,19.70
2022-09-21T13:40:59.970Z,19.70
2022-09-21T13:44:04.321Z,19.50
2022-09-21T13:47:03.319Z,19.70
2022-09-21T13:49:50.774Z,19.80
2022-09-21T13:52:33.304Z,20.00
2022-09-21T13:55:04.030Z,20.30
2022-09-21T13:57:37.987Z,20.40
2022-09-21T14:00:28.329Z,20.40
2022-09-21T14:03:04.022Z,20.30
2022-09-21T14:05:40.650Z,20.20
2022-09-21T14:08:22.960Z,20.70
2022-09-21T14:10:55.680Z,21.00
2022-09-21T14:13:29.249Z,21.20
2022-09-21T14:16:37.250Z,21.20
2022-09-21T14:19:26.918Z,21.10
2022-09-21T14:22:28.089Z,20.90
2022-09-21T14:25:24.293Z,21.00
2022-09-21T14:27:53.719Z,21.10
2022-09-21T14:30:23.805Z,20.80
2022-09-21T14:33:03.472Z,20.60
2022-09-21T14:35:35.013Z,20.30
2022-09-21T14:38:10.974Z,20.20
2022-09-21T14:40:47.803Z,20.20
2022-09-21T14:43:24.163Z,20.40
2022-09-21T14:46:02.943Z,20.20
2022-09-21T14:48:38.990Z,20.00
2022-09-21T14:51:19.757Z,19.90
2022-09-21T14:54:13.163Z,20.20
2022-09-21T14:56:56.586Z,20.20
2022-09-21T14:59:39.775Z,20.30
2022-09-21T15:02:20.843Z,20.40
2022-09-21T15:04:59.898Z,20.40
2022-09-21T15:07:55.351Z,20.10
2022-09-21T15:10:45.849Z,19.90
2022-09-21T15:13:26.702Z,19.70
2022-09-21T15:16:20.159Z,19.90
2022-09-21T15:18:50.537Z,20.10
2022-09-21T15:21:24.159Z,20.30
2022-09-21T15:23:53.140Z,20.10
2022-09-21T15:26:26.713Z,19.90
2022-09-21T15:29:09.389Z,19.70
2022-09-21T15:31:40.083Z,19.50
2022-09-21T15:34:09.315Z,19.30
2022-09-21T15:36:39.437Z,19.10
2022-09-21T15:39:07.696Z,19.20
2022-09-21T15:41:41.306Z,19.30
2022-09-21T15:44:16.767Z,19.30
2022-09-21T15:46:47.287Z,19.20
2022-09-21T15:49:17.814Z,19.20
2022-09-21T15:51:46.370Z,19.20
2022-09-21T15:54:30.535Z,19.30
2022-09-21T15:56:59.216Z,19.50
2022-09-21T15:59:29.454Z,19.40
2022-09-21T16:02:00.651Z,19.60
2022-09-21T16:04:29.598Z,19.60
2022-09-21T16:07:04.100Z,19.50
2022-09-21T16:09:40.949Z,19.30
2022-09-21T16:12:40.555Z,19.30
2022-09-21T16:15:23.611Z,19.40
2022-09-21T16:17:58.015Z,19.30
2022-09-21T16:20:37.936Z,19.10
2022-09-21T16:23:07.769Z,19.00
2022-09-21T16:25:37.570Z,18.80
2022-09-21T16:28:09.510Z,18.60
2022-09-21T16:30:47.195Z,18.60
2022-09-21T16:33:42.187Z,18.80
2022-09-21T16:36:42.283Z,18.60
2022-09-21T16:39:15.932Z,18.40
2022-09-21T16:41:56.319Z,18.40
2022-09-21T16:44:26.019Z,18.30
2022-09-21T16:47:00.791Z,18.20
2022-09-21T16:49:31.174Z,18.00
2022-09-21T16:51:59.639Z,18.00
2022-09-21T16:54:28.453Z,18.00
2022-09-21T16:56:58.317Z,17.80
2022-09-21T16:59:27.029Z,17.70
2022-09-21T17:01:59.073Z,17.60
2022-09-21T17:04:30.423Z,17.50
2022-09-21T17:07:00.367Z,17.40
2022-09-21T17:09:31.190Z,17.30
2022-09-21T17:12:01.733Z,17.20
2022-09-21T17:14:34.945Z,17.10
2022-09-21T17:17:06.049Z,17.20
2022-09-21T17:19:35.745Z,17.10
2022-09-21T17:22:04.467Z,17.10
2022-09-21T17:24:49.175Z,17.10
2022-09-21T17:27:19.624Z,17.10
2022-09-21T17:29:49.157Z,17.10
2022-09-21T17:32:20.190Z,17.00
2022-09-21T17:34:56.160Z,16.70
2022-09-21T17:37:24.043Z,16.50
2022-09-21T17:39:51.741Z,16.50
2022-09-21T17:42:21.548Z,16.20
2022-09-21T17:45:13.291Z,16.10
2022-09-21T17:47:41.954Z,16.00
2022-09-21T17:50:19.520Z,16.00
2022-09-21T17:53:05.658Z,15.90
2022-09-21T17:55:33.849Z,15.60
2022-09-21T17:58:26.894Z,15.40
2022-09-21T18:01:04.936Z,15.30
2022-09-21T18:03:37.762Z,15.20
2022-09-21T18:06:08.677Z,15.10
2022-09-21T18:08:38.406Z,15.30
2022-09-21T18:11:15.539Z,15.50
2022-09-21T18:13:53.968Z,15.30
2022-09-21T18:16:27.987Z,15.10
2022-09-21T18:19:03.989Z,15.30
2022-09-21T18:21:38.103Z,15.40
2022-09-21T18:24:21.654Z,15.40
2022-09-21T18:26:52.171Z,15.50
2022-09-21T18:29:46.536Z,15.60
2022-09-21T18:32:28.345Z,15.50
2022-09-21T18:35:11.446Z,15.40
2022-09-21T18:37:47.265Z,15.40
2022-09-21T18:40:23.270Z,15.40
2022-09-21T18:42:58.944Z,15.40
2022-09-21T18:45:31.791Z,15.30
2022-09-21T18:48:19.349Z,15.30
2022-09-21T18:50:53.871Z,15.20
2022-09-21T18:53:29.759Z,15.10
2022-09-21T18:55:57.956Z,15.10
2022-09-21T18:58:26.135Z,15.10
2022-09-21T19:00:54.294Z,15.00
2022-09-21T19:03:22.582Z,14.80
2022-09-21T19:06:08.032Z,14.60
2022-09-21T19:08:44.211Z,14.60
2022-09-21T19:11:20.092Z,14.70
2022-09-21T19:13:58.801Z,14.80
2022-09-21T19:16:34.947Z,14.90
2022-09-21T19:19:19.476Z,14.60
2022-09-21T19:21:55.121Z,14.20
2022-09-21T19:24:30.549Z,14.00
2022-09-21T19:27:12.460Z,14.00
2022-09-21T19:29:50.203Z,14.30
2022-09-21T19:32:19.482Z,14.20
2022-09-21T19:34:47.564Z,14.10
2022-09-21T19:37:15.477Z,14.00
2022-09-21T19:39:45.124Z,14.00
2022-09-21T19:42:30.062Z,14.00
2022-09-21T19:45:10.559Z,14.30
2022-09-21T19:47:45.275Z,14.20
2022-09-21T19:50:17.731Z,14.30
2022-09-21T19:52:46.539Z,14.40
2022-09-21T19:55:36.999Z,14.50
2022-09-21T19:58:23.427Z,14.30
2022-09-21T20:00:54.070Z,14.10
2022-09-21T20:03:31.234Z,14.20
2022-09-21T20:06:05.836Z,14.20
2022-09-21T20:08:41.424Z,14.30
2022-09-21T20:11:14.588Z,14.30
2022-09-21T20:14:00.763Z,14.30
2022-09-21T20:16:40.177Z,14.20
2022-09-21T20:19:18.177Z,14.00
2022-09-21T20:21:49.280Z,14.00
2022-09-21T20:24:22.763Z,13.90
2022-09-21T20:26:52.799Z,13.60
2022-09-21T20:29:21.770Z,13.40
2022-09-21T20:31:52.237Z,13.40
2022-09-21T20:34:20.814Z,13.40
2022-09-21T20:36:48.655Z,13.30
2022-09-21T20:39:16.330Z,13.20
2022-09-21T20:41:44.011Z,13.20
2022-09-21T20:44:14.624Z,13.20
2022-09-21T20:46:42.301Z,13.30
2022-09-21T20:49:15.182Z,13.50
2022-09-21T20:51:42.956Z,13.30
2022-09-21T20:54:11.362Z,13.30
2022-09-21T20:56:39.032Z,13.30
2022-09-21T20:59:06.796Z,13.50
2022-09-21T21:01:35.904Z,13.60
2022-09-21T21:04:03.834Z,13.50
2022-09-21T21:06:32.545Z,13.30
2022-09-21T21:09:00.475Z,13.40
2022-09-21T21:11:28.405Z,13.40
2022-09-21T21:13:56.763Z,13.50
2022-09-21T21:16:24.832Z,13.50
2022-09-21T21:18:53.901Z,13.40
2022-09-21T21:21:21.639Z,13.50
2022-09-21T21:24:10.509Z,13.50
2022-09-21T21:27:00.866Z,13.50
2022-09-21T21:29:26.441Z,13.40
2022-09-21T21:31:54.220Z,13.20
2022-09-21T21:34:24.023Z,13.10
2022-09-21T21:36:52.138Z,13.10
2022-09-21T21:39:20.654Z,13.10
2022-09-21T21:41:48.645Z,13.00
2022-09-21T21:44:16.338Z,12.80
2022-09-21T21:46:44.389Z,12.60
2022-09-21T21:49:13.189Z,12.80
2022-09-21T21:51:42.253Z,12.90
2022-09-21T21:54:10.164Z,12.80
2022-09-21T21:56:37.933Z,12.70
2022-09-21T21:59:06.207Z,12.80
2022-09-21T22:01:34.002Z,13.00
2022-09-21T22:04:03.500Z,13.00
2022-09-21T22:06:33.530Z,13.00
2022-09-21T22:09:03.634Z,13.00
2022-09-21T22:11:32.169Z,12.90
2022-09-21T22:14:01.439Z,13.00
2022-09-21T22:16:31.318Z,13.10
2022-09-21T22:19:00.033Z,12.90
2022-09-21T22:21:29.957Z,12.60
2022-09-21T22:23:59.462Z,12.50
2022-09-21T22:26:30.512Z,12.40
2022-09-21T22:29:01.211Z,12.30
2022-09-21T22:31:31.918Z,12.40
2022-09-21T22:34:00.594Z,12.60
2022-09-21T22:36:31.447Z,12.60
2022-09-21T22:38:59.691Z,12.50
2022-09-21T22:41:30.834Z,12.40
2022-09-21T22:43:59.669Z,12.60
2022-09-21T22:46:28.814Z,12.60
2022-09-21T22:48:56.872Z,12.50
2022-09-21T22:51:24.834Z,12.60
2022-09-21T22:53:52.619Z,12.70
2022-09-21T22:56:21.916Z,12.50
2022-09-21T22:58:52.354Z,12.50
2022-09-21T23:01:25.415Z,12.50
2022-09-21T23:03:59.082Z,12.70
2022-09-21T23:06:29.281Z,12.50
2022-09-21T23:08:59.069Z,12.50
2022-09-21T23:11:29.650Z,12.60
2022-09-21T23:13:59.411Z,12.50
2022-09-21T23:16:28.981Z,12.50
2022-09-21T23:18:57.964Z,12.40
2022-09-21T23:21:27.599Z,12.50
2022-09-21T23:23:56.901Z,12.30
2022-09-21T23:26:26.041Z,12.00
2022-09-21T23:28:56.605Z,12.00
2022-09-21T23:31:26.986Z,12.20
2022-09-21T23:33:56.999Z,12.30
2022-09-21T23:36:26.613Z,12.10
2022-09-21T23:38:54.705Z,12.30
2022-09-21T23:41:24.230Z,12.10
2022-09-21T23:43:52.825Z,11.80
2022-09-21T23:46:22.539Z,11.90
2022-09-21T23:48:51.879Z,12.10
2022-09-21T23:51:20.095Z,12.00
2022-09-21T23:53:48.424Z,11.80
2022-09-21T23:56:17.841Z,11.50
2022-09-21T23:58:45.767Z,11.20
